Página principal
METAR-TAF:

METAR-TAF

Aeroportos :

Aeroporto Internacional Amílcar Cabral

Sal, Cabo Verde

latitude: 16-44N, longitude: 022-57W, altura: 54 m

Observação actual do tempo

O boletim foi feito há 40 minutos, às 14:00 UTC
Vento 17 kt de nor-nordeste
Temperatura 29°C
Humidade 62%
Pressão 1011 hPa
Visibilidade 10 km ou mais
Poucas nuvensa uma altura de 1300 ft

METAR: GVAC 111400Z 02017KT 9999 FEW013 29/21 Q1011 NOSIG

Hora: 13:40 (14:40 UTC)

Previsão

O boletim foi feito há 3 horas e 40 minutos, às 11:00 UTC
Previsão válida de 11 às 12 UTC a 12 às 18 UTC
Vento 15 kt de nor-nordeste
Visibilidade 10 km ou mais
Nuvens dispersasa uma altura de 1300 ft

TAF: GVAC 111100Z 1112/1218 02015KT 9999 SCT013

Observações e previsões do tempo de mais de 4000 aeroportos (mensagens METAR e TAF).

As estações disponíveis são os pontos amarelos e vermelhos sobre o mapa.

Mova o rato sobre o mapa para ver o nome da estação.

Depois clique no ponto para visualizar as observações e previsões meteorológicas.

Para alterar o mapa : clique nos botões verdes com uma cruz preta para aumentar o zoom; no botão verde com uma pitada de zoom; ou nas setas verdes para mapas adjacentes.


METAR-TAF: